createdAt,value
2022-08-23T00:14:10.805Z,13.90
2022-08-23T00:24:08.006Z,13.70
2022-08-23T00:26:58.008Z,13.60
2022-08-23T00:36:49.932Z,13.60
2022-08-23T00:41:46.336Z,13.50
2022-08-23T00:44:46.644Z,13.40
2022-08-23T00:50:23.702Z,13.40
2022-08-23T00:53:20.349Z,13.40
2022-08-23T00:55:50.445Z,13.20
2022-08-23T00:58:20.235Z,13.30
2022-08-23T01:00:49.983Z,13.30
2022-08-23T01:10:53.433Z,13.20
2022-08-23T01:13:26.844Z,13.20
2022-08-23T01:15:58.363Z,13.20
2022-08-23T01:18:28.605Z,13.10
2022-08-23T01:21:10.334Z,13.00
2022-08-23T01:23:50.339Z,13.00
2022-08-23T01:26:21.873Z,13.00
2022-08-23T01:28:49.509Z,13.00
2022-08-23T01:31:18.465Z,13.00
2022-08-23T01:33:49.099Z,13.00
2022-08-23T01:36:17.045Z,12.90
2022-08-23T01:41:10.956Z,12.90
2022-08-23T01:43:37.873Z,12.80
2022-08-23T01:46:10.880Z,12.80
2022-08-23T01:51:05.943Z,12.80
2022-08-23T01:53:33.122Z,12.70
2022-08-23T01:56:01.688Z,12.70
2022-08-23T02:11:12.627Z,12.60
2022-08-23T02:16:06.791Z,12.50
2022-08-23T02:21:01.167Z,12.50
2022-08-23T02:28:24.042Z,12.50
2022-08-23T02:30:51.843Z,12.60
2022-08-23T02:33:18.930Z,12.60
2022-08-23T02:35:47.050Z,12.60
2022-08-23T02:38:13.895Z,12.40
2022-08-23T02:40:41.358Z,12.30
2022-08-23T02:43:08.982Z,12.40
2022-08-23T02:45:36.610Z,12.30
2022-08-23T02:48:03.794Z,12.30
2022-08-23T02:50:31.031Z,12.20
2022-08-23T02:52:58.247Z,12.20
2022-08-23T02:55:25.505Z,12.20
2022-08-23T02:57:52.256Z,12.20
2022-08-23T03:00:19.974Z,12.10
2022-08-23T03:02:47.247Z,12.10
2022-08-23T03:05:15.138Z,12.10
2022-08-23T03:07:42.512Z,12.10
2022-08-23T03:10:10.447Z,12.10
2022-08-23T03:12:37.555Z,12.00
2022-08-23T03:15:05.768Z,11.90
2022-08-23T03:17:32.711Z,11.90
2022-08-23T03:19:59.442Z,11.80
2022-08-23T03:22:26.431Z,11.80
2022-08-23T03:24:53.174Z,11.70
2022-08-23T03:27:19.927Z,11.70
2022-08-23T03:29:46.658Z,11.70
2022-08-23T03:32:15.541Z,11.70
2022-08-23T03:34:42.814Z,11.60
2022-08-23T03:37:09.711Z,11.60
2022-08-23T03:39:36.610Z,11.70
2022-08-23T03:42:03.974Z,11.60
2022-08-23T03:44:30.871Z,11.70
2022-08-23T03:46:57.561Z,11.50
2022-08-23T03:49:24.490Z,11.50
2022-08-23T03:51:51.470Z,11.50
2022-08-23T03:54:18.213Z,11.50
2022-08-23T03:56:54.627Z,11.50
2022-08-23T03:59:21.883Z,11.50
2022-08-23T04:01:49.392Z,11.50
2022-08-23T04:04:17.314Z,11.50
2022-08-23T04:06:45.227Z,11.50
2022-08-23T04:09:13.621Z,11.50
2022-08-23T04:11:40.510Z,11.50
2022-08-23T04:14:07.329Z,11.50
2022-08-23T04:16:37.625Z,11.50
2022-08-23T04:19:05.492Z,11.50
2022-08-23T04:21:37.798Z,11.40
2022-08-23T04:24:05.006Z,11.40
2022-08-23T04:26:33.574Z,11.50
2022-08-23T04:29:00.818Z,11.40
2022-08-23T04:31:28.311Z,11.40
2022-08-23T04:34:01.558Z,11.40
2022-08-23T04:36:34.474Z,11.40
2022-08-23T04:39:01.637Z,11.40
2022-08-23T04:41:48.272Z,11.50
2022-08-23T04:44:15.470Z,11.40
2022-08-23T04:46:43.777Z,11.40
2022-08-23T04:49:11.825Z,11.40
2022-08-23T04:51:38.992Z,11.50
2022-08-23T04:54:06.257Z,11.50
2022-08-23T04:56:33.185Z,11.50
2022-08-23T04:59:00.017Z,11.50
2022-08-23T05:01:26.940Z,11.60
2022-08-23T05:03:55.320Z,11.50
2022-08-23T05:06:22.676Z,11.60
2022-08-23T05:08:49.682Z,11.90
2022-08-23T05:11:18.920Z,12.20
2022-08-23T05:13:45.637Z,12.50
2022-08-23T05:16:12.489Z,13.00
2022-08-23T05:18:39.514Z,13.40
2022-08-23T05:21:06.549Z,13.90
2022-08-23T05:23:40.715Z,14.30
2022-08-23T05:26:08.162Z,14.50
2022-08-23T05:28:36.277Z,14.60
2022-08-23T05:31:10.384Z,14.50
2022-08-23T05:33:39.140Z,14.60
2022-08-23T05:36:09.613Z,15.00
2022-08-23T05:53:37.394Z,15.00
2022-08-23T07:23:55.651Z,19.60
2022-08-23T08:26:06.231Z,22.70
2022-08-23T08:36:00.725Z,23.60
2022-08-23T08:38:51.137Z,23.70
2022-08-23T08:41:28.097Z,23.80
2022-08-23T08:44:16.424Z,24.00
2022-08-23T08:46:50.627Z,24.20
2022-08-23T08:49:44.077Z,24.30
2022-08-23T08:52:32.242Z,24.40
2022-08-23T08:55:05.670Z,21.70
2022-08-23T08:57:39.139Z,24.60
2022-08-23T09:00:13.586Z,24.60
2022-08-23T09:02:41.876Z,24.60
2022-08-23T09:05:15.265Z,24.70
2022-08-23T09:08:07.184Z,24.80
2022-08-23T09:10:34.833Z,25.10
2022-08-23T09:13:03.608Z,25.00
2022-08-23T09:15:40.293Z,24.90
2022-08-23T09:18:11.932Z,25.00
2022-08-23T09:20:40.344Z,25.30
2022-08-23T09:23:17.130Z,25.30
2022-08-23T09:25:59.868Z,25.40
2022-08-23T09:28:31.052Z,26.30
2022-08-23T09:43:29.107Z,30.10
2022-08-23T09:48:41.692Z,31.40
2022-08-23T09:51:18.764Z,31.90
2022-08-23T10:04:08.663Z,33.90
2022-08-23T10:11:45.170Z,34.80
2022-08-23T10:17:08.142Z,36.20
2022-08-23T10:19:40.099Z,36.60
2022-08-23T10:22:37.555Z,37.00
2022-08-23T10:28:00.041Z,36.50
2022-08-23T11:59:12.726Z,40.80
2022-08-23T12:06:48.788Z,42.10
2022-08-23T12:11:56.310Z,42.60
2022-08-23T12:14:42.938Z,42.70
2022-08-23T12:19:48.099Z,43.10
2022-08-23T12:24:52.719Z,43.00
2022-08-23T12:27:38.569Z,43.10
2022-08-23T12:30:08.944Z,43.40
2022-08-23T12:32:44.456Z,44.10
2022-08-23T12:37:48.647Z,44.10
2022-08-23T12:40:26.101Z,44.00
2022-08-23T12:43:22.435Z,44.10
2022-08-23T12:46:00.833Z,44.30
2022-08-23T12:48:31.795Z,43.60
2022-08-23T12:51:06.509Z,43.50
2022-08-23T12:53:41.386Z,44.20
2022-08-23T12:56:19.477Z,44.90
2022-08-23T12:58:52.876Z,44.80
2022-08-23T13:01:30.005Z,45.00
2022-08-23T13:04:06.203Z,44.90
2022-08-23T13:06:49.541Z,45.10
2022-08-23T13:09:19.484Z,45.10
2022-08-23T13:11:47.420Z,45.10
2022-08-23T13:14:22.495Z,44.80
2022-08-23T13:16:51.768Z,44.70
2022-08-23T13:19:23.109Z,45.00
2022-08-23T13:22:11.827Z,45.00
2022-08-23T13:24:45.268Z,45.30
2022-08-23T13:27:18.907Z,45.40
2022-08-23T13:29:52.602Z,45.40
2022-08-23T13:32:41.818Z,45.20
2022-08-23T13:35:27.842Z,44.50
2022-08-23T13:37:59.515Z,44.30
2022-08-23T13:40:31.483Z,44.30
2022-08-23T13:43:04.534Z,44.50
2022-08-23T13:45:34.699Z,44.50
2022-08-23T13:48:09.135Z,45.00
2022-08-23T13:50:38.539Z,45.40
2022-08-23T13:53:15.361Z,45.70
2022-08-23T13:55:51.914Z,45.60
2022-08-23T13:58:35.170Z,45.50
2022-08-23T14:01:04.334Z,45.30
2022-08-23T14:03:31.510Z,44.90
2022-08-23T14:05:58.276Z,44.90
2022-08-23T14:08:25.167Z,45.00
2022-08-23T14:10:51.810Z,45.00
2022-08-23T14:13:29.603Z,45.00
2022-08-23T14:21:35.651Z,45.80
2022-08-23T14:24:02.704Z,45.90
2022-08-23T14:26:29.855Z,44.70
2022-08-23T14:28:56.682Z,44.70
2022-08-23T14:31:24.001Z,44.40
2022-08-23T14:33:50.866Z,44.50
2022-08-23T14:36:17.807Z,44.90
2022-08-23T14:38:44.561Z,44.80
2022-08-23T14:41:21.182Z,44.50
2022-08-23T14:43:50.692Z,44.40
2022-08-23T14:46:17.647Z,44.10
2022-08-23T14:48:44.478Z,48.50
2022-08-23T14:51:27.849Z,44.90
2022-08-23T14:53:55.488Z,45.10
2022-08-23T14:56:22.546Z,44.80
2022-08-23T14:58:50.561Z,44.70
2022-08-23T15:01:18.357Z,44.50
2022-08-23T15:03:45.698Z,44.50
2022-08-23T15:06:13.933Z,44.20
2022-08-23T15:08:41.370Z,44.10
2022-08-23T15:13:56.778Z,44.10
2022-08-23T15:16:26.813Z,44.50
2022-08-23T15:21:20.937Z,44.00
2022-08-23T15:23:47.937Z,43.90
2022-08-23T15:26:19.102Z,44.40
2022-08-23T15:28:46.217Z,44.30
2022-08-23T15:31:15.119Z,44.30
2022-08-23T15:36:12.117Z,43.60
2022-08-23T15:38:42.964Z,43.50
2022-08-23T15:41:09.778Z,43.50
2022-08-23T15:43:39.679Z,43.30
2022-08-23T15:46:10.779Z,42.90
2022-08-23T15:48:48.588Z,43.00
2022-08-23T15:51:17.759Z,43.30
2022-08-23T15:53:44.727Z,43.10
2022-08-23T15:56:16.291Z,42.40
2022-08-23T16:01:10.412Z,41.50
2022-08-23T16:08:37.196Z,36.40
2022-08-23T16:16:21.214Z,31.90
2022-08-23T17:47:35.965Z,23.80
2022-08-23T18:42:12.122Z,20.60
2022-08-23T23:06:58.660Z,15.50
